createdAt,value
2018-07-15T00:00:29.011Z,65.49
2018-07-15T00:02:58.042Z,65.56
2018-07-15T00:05:27.061Z,66.02
2018-07-15T00:07:56.040Z,66.50
2018-07-15T00:10:25.065Z,65.41
2018-07-15T00:12:54.118Z,66.37
2018-07-15T00:15:23.185Z,65.98
2018-07-15T00:17:52.360Z,66.48
2018-07-15T00:20:21.326Z,66.02
2018-07-15T00:22:50.340Z,65.75
2018-07-15T00:25:19.316Z,66.63
2018-07-15T00:27:48.336Z,65.63
2018-07-15T00:30:17.391Z,66.18
2018-07-15T00:32:46.406Z,66.06
2018-07-15T00:35:15.436Z,66.62
2018-07-15T00:37:44.424Z,66.69
2018-07-15T00:40:13.514Z,66.02
2018-07-15T00:42:42.478Z,66.66
2018-07-15T00:45:11.457Z,66.22
2018-07-15T00:47:40.484Z,65.67
2018-07-15T00:50:09.565Z,67.05
2018-07-15T00:52:38.543Z,66.58
2018-07-15T00:55:07.499Z,66.73
2018-07-15T00:57:36.496Z,66.96
2018-07-15T01:00:05.756Z,67.07
2018-07-15T01:02:35.022Z,66.58
2018-07-15T01:05:03.989Z,66.51
2018-07-15T01:07:33.020Z,67.26
2018-07-15T01:10:02.340Z,67.38
2018-07-15T01:12:31.311Z,66.57
2018-07-15T01:15:00.287Z,66.88
2018-07-15T01:17:29.249Z,66.98
2018-07-15T01:19:58.252Z,67.92
2018-07-15T01:22:27.230Z,67.87
2018-07-15T01:24:56.312Z,67.76
2018-07-15T01:27:25.399Z,68.28
2018-07-15T01:29:54.409Z,68.84
2018-07-15T01:32:23.395Z,68.35
2018-07-15T01:34:52.485Z,68.04
2018-07-15T01:37:21.448Z,68.39
2018-07-15T01:39:50.457Z,68.09
2018-07-15T01:42:19.441Z,68.73
2018-07-15T01:44:48.518Z,69.18
2018-07-15T01:47:17.645Z,68.63
2018-07-15T01:49:46.697Z,69.45
2018-07-15T01:52:15.727Z,70.39
2018-07-15T01:54:44.753Z,70.12
2018-07-15T01:57:13.842Z,70.08
2018-07-15T01:59:42.933Z,69.77
2018-07-15T02:02:11.932Z,70.56
2018-07-15T02:04:41.010Z,70.62
2018-07-15T02:07:09.989Z,69.94
2018-07-15T02:09:39.101Z,70.90
2018-07-15T02:12:08.092Z,70.70
2018-07-15T02:14:37.122Z,71.49
2018-07-15T02:17:06.111Z,70.81
2018-07-15T02:19:35.084Z,71.25
2018-07-15T02:22:04.118Z,71.31
2018-07-15T02:24:33.167Z,71.03
2018-07-15T02:27:02.198Z,71.60
2018-07-15T02:29:31.160Z,71.47
2018-07-15T02:32:00.312Z,70.51
2018-07-15T02:34:29.329Z,71.13
2018-07-15T02:36:58.301Z,71.21
2018-07-15T02:39:27.391Z,71.69
2018-07-15T02:41:56.361Z,71.32
2018-07-15T02:44:25.398Z,71.31
2018-07-15T02:46:54.370Z,71.73
2018-07-15T02:49:23.446Z,71.45
2018-07-15T02:51:52.494Z,70.64
2018-07-15T02:54:21.529Z,71.34
2018-07-15T02:56:50.530Z,71.57
2018-07-15T02:59:19.539Z,71.54
2018-07-15T03:01:48.540Z,71.89
2018-07-15T03:04:17.561Z,71.46
2018-07-15T03:06:46.753Z,72.35
2018-07-15T03:09:15.785Z,72.10
2018-07-15T03:11:44.809Z,71.61
2018-07-15T03:14:13.835Z,72.33
2018-07-15T03:16:42.918Z,71.75
2018-07-15T03:19:11.942Z,72.23
2018-07-15T03:21:41.030Z,72.10
2018-07-15T03:24:10.144Z,71.65
2018-07-15T03:26:39.102Z,71.97
2018-07-15T03:29:08.064Z,71.45
2018-07-15T03:31:37.029Z,71.87
2018-07-15T03:34:06.166Z,71.07
2018-07-15T03:36:35.121Z,71.44
2018-07-15T03:39:04.881Z,72.14
2018-07-15T03:41:33.850Z,71.29
2018-07-15T03:44:02.807Z,71.38
2018-07-15T03:46:31.805Z,70.98
2018-07-15T03:49:00.839Z,71.25
2018-07-15T03:51:29.919Z,71.18
2018-07-15T03:53:58.949Z,70.72
2018-07-15T03:56:28.000Z,71.61
2018-07-15T03:58:57.065Z,71.61
2018-07-15T04:01:26.108Z,71.66
2018-07-15T04:03:55.070Z,70.51
2018-07-15T04:06:24.052Z,69.84
2018-07-15T04:08:53.995Z,70.92
2018-07-15T04:11:22.971Z,69.35
2018-07-15T04:13:52.104Z,69.33
2018-07-15T04:16:21.134Z,62.47
2018-07-15T04:18:50.197Z,56.89
2018-07-15T04:21:19.225Z,54.57
2018-07-15T04:23:48.366Z,48.85
2018-07-15T04:26:17.404Z,44.78
2018-07-15T04:28:46.348Z,39.69
2018-07-15T04:31:15.322Z,36.05
2018-07-15T04:33:44.334Z,34.01
2018-07-15T04:36:13.356Z,32.76
2018-07-15T04:38:42.381Z,31.40
2018-07-15T04:41:11.372Z,30.94
2018-07-15T04:43:40.438Z,29.46
2018-07-15T04:46:09.476Z,28.46
2018-07-15T04:48:38.524Z,28.11
2018-07-15T04:51:07.525Z,27.01
2018-07-15T04:53:36.606Z,28.25
2018-07-15T04:56:05.577Z,27.74
2018-07-15T04:58:34.624Z,27.03
2018-07-15T05:01:03.812Z,26.42
2018-07-15T05:03:32.881Z,27.54
2018-07-15T05:06:02.030Z,27.71
2018-07-15T05:08:31.125Z,27.61
2018-07-15T05:11:00.092Z,28.49
2018-07-15T05:13:29.075Z,27.35
2018-07-15T05:15:58.048Z,26.61
2018-07-15T05:18:27.060Z,26.32
2018-07-15T05:20:56.016Z,27.11
2018-07-15T05:23:24.998Z,27.60
2018-07-15T05:25:54.029Z,26.95
2018-07-15T05:28:23.049Z,25.43
2018-07-15T05:30:52.065Z,25.76
2018-07-15T05:33:21.062Z,25.45
2018-07-15T05:35:50.020Z,25.84
2018-07-15T05:38:19.078Z,26.16
2018-07-15T05:40:48.037Z,27.00
2018-07-15T05:43:17.060Z,26.92
2018-07-15T05:45:46.147Z,26.72
2018-07-15T05:48:15.131Z,25.72
2018-07-15T05:50:44.060Z,26.02
2018-07-15T05:53:13.136Z,25.46
2018-07-15T05:55:42.110Z,25.19
2018-07-15T05:58:11.179Z,25.15
2018-07-15T06:00:40.213Z,25.11
2018-07-15T06:03:09.167Z,26.58
2018-07-15T06:05:38.208Z,25.46
2018-07-15T06:08:07.178Z,26.59
2018-07-15T06:10:36.300Z,25.55
2018-07-15T06:13:05.296Z,25.35
2018-07-15T06:15:34.382Z,27.94
2018-07-15T06:18:03.425Z,27.62
2018-07-15T06:20:32.504Z,27.66
2018-07-15T06:23:01.529Z,27.47
2018-07-15T06:25:30.508Z,27.57
2018-07-15T06:27:59.584Z,29.71
2018-07-15T06:30:28.577Z,29.87
2018-07-15T06:32:57.524Z,28.67
2018-07-15T06:35:26.562Z,29.15
2018-07-15T06:37:55.518Z,29.19
2018-07-15T06:40:24.510Z,29.23
2018-07-15T06:42:53.449Z,29.78
2018-07-15T06:45:22.535Z,32.83
2018-07-15T06:47:51.606Z,33.40
2018-07-15T06:50:20.656Z,33.67
2018-07-15T06:52:49.766Z,32.68
2018-07-15T06:55:18.846Z,34.40
2018-07-15T06:57:47.840Z,33.68
2018-07-15T07:00:16.896Z,33.36
2018-07-15T07:02:45.926Z,34.88
2018-07-15T07:05:14.925Z,36.01
2018-07-15T07:07:44.000Z,36.94
2018-07-15T07:10:12.935Z,35.56
2018-07-15T07:12:42.021Z,33.13
2018-07-15T07:15:10.972Z,32.80
2018-07-15T07:17:39.932Z,32.50
2018-07-15T07:20:08.901Z,34.34
2018-07-15T07:22:37.984Z,36.25
2018-07-15T07:25:07.134Z,35.31
2018-07-15T07:27:36.120Z,36.96
2018-07-15T07:30:05.120Z,36.52
2018-07-15T07:32:34.261Z,35.68
2018-07-15T07:35:03.318Z,35.66
2018-07-15T07:37:32.276Z,36.14
2018-07-15T07:40:01.346Z,36.80
2018-07-15T07:42:30.374Z,36.94
2018-07-15T07:44:59.400Z,35.08
2018-07-15T07:47:28.385Z,34.59
2018-07-15T07:49:57.766Z,35.17
2018-07-15T07:52:26.865Z,35.49
2018-07-15T07:54:55.848Z,36.04
2018-07-15T07:57:24.890Z,37.11
2018-07-15T07:59:53.909Z,38.52
2018-07-15T08:02:22.911Z,37.88
2018-07-15T08:04:51.994Z,38.85
2018-07-15T08:07:21.066Z,39.30
2018-07-15T08:09:50.104Z,39.83
2018-07-15T08:12:19.095Z,37.02
2018-07-15T08:14:48.071Z,38.33
2018-07-15T08:17:17.102Z,38.58
2018-07-15T08:19:46.136Z,39.42
2018-07-15T08:22:15.093Z,37.48
2018-07-15T08:24:44.179Z,39.50
2018-07-15T08:27:13.153Z,41.48
2018-07-15T08:30:52.518Z,40.24
2018-07-15T08:33:21.632Z,38.93
2018-07-15T08:35:50.661Z,40.02
2018-07-15T08:38:19.710Z,40.90
2018-07-15T08:40:48.810Z,38.36
2018-07-15T08:43:17.750Z,39.26
2018-07-15T08:45:46.824Z,38.79
2018-07-15T08:48:15.805Z,38.78
2018-07-15T08:50:44.881Z,39.31
2018-07-15T08:53:13.892Z,40.50
2018-07-15T08:55:43.253Z,40.16
2018-07-15T08:58:12.308Z,40.80
2018-07-15T09:00:41.332Z,40.96
2018-07-15T09:03:10.291Z,39.94
2018-07-15T09:05:39.300Z,40.34
2018-07-15T09:08:08.524Z,40.54
2018-07-15T09:10:37.952Z,40.89
2018-07-15T09:13:06.972Z,39.28
2018-07-15T09:15:36.093Z,39.60
2018-07-15T09:18:05.180Z,39.89
2018-07-15T09:20:34.253Z,40.99
2018-07-15T09:23:03.245Z,41.01
2018-07-15T09:25:32.189Z,39.10
2018-07-15T09:28:01.263Z,41.59
2018-07-15T09:30:30.217Z,40.46
2018-07-15T09:32:59.226Z,38.36
2018-07-15T09:35:28.376Z,38.66
2018-07-15T09:37:57.416Z,40.37
2018-07-15T09:40:26.404Z,38.49
2018-07-15T09:42:55.460Z,36.84
2018-07-15T09:45:24.541Z,38.74
2018-07-15T09:47:53.524Z,39.47
2018-07-15T09:50:22.549Z,39.47
2018-07-15T09:52:51.581Z,38.45
2018-07-15T09:55:20.678Z,38.69
2018-07-15T09:57:49.753Z,35.79
2018-07-15T10:00:24.017Z,34.13
2018-07-15T10:02:53.024Z,34.30
2018-07-15T10:05:22.009Z,32.96
2018-07-15T10:07:51.026Z,35.46
2018-07-15T10:10:20.080Z,34.49
2018-07-15T10:12:49.196Z,36.38
2018-07-15T10:15:18.285Z,33.25
2018-07-15T10:17:47.317Z,32.12
2018-07-15T10:20:16.277Z,31.94
2018-07-15T10:22:45.264Z,33.06
2018-07-15T10:25:14.277Z,32.54
2018-07-15T10:27:43.235Z,32.12
2018-07-15T10:30:12.228Z,31.16
2018-07-15T10:32:41.312Z,32.04
2018-07-15T10:35:10.400Z,31.52
2018-07-15T10:37:39.348Z,32.80
2018-07-15T10:40:08.479Z,32.27
2018-07-15T10:42:37.492Z,28.41
2018-07-15T10:45:06.465Z,30.33
2018-07-15T10:47:35.486Z,31.72
2018-07-15T10:50:04.460Z,30.29
2018-07-15T10:52:33.436Z,30.47
2018-07-15T10:55:02.481Z,28.95
2018-07-15T10:57:31.526Z,27.67
2018-07-15T11:00:00.512Z,28.03
2018-07-15T11:02:29.481Z,27.99
2018-07-15T11:04:58.560Z,28.49
2018-07-15T11:07:27.551Z,27.02
2018-07-15T11:09:56.589Z,27.17
2018-07-15T11:12:25.608Z,28.03
2018-07-15T11:14:54.632Z,27.56
2018-07-15T11:17:23.705Z,28.45
2018-07-15T11:19:52.796Z,27.43
2018-07-15T11:22:21.986Z,26.41
2018-07-15T11:24:50.907Z,26.40
2018-07-15T11:27:19.945Z,27.58
2018-07-15T11:29:48.898Z,28.83
2018-07-15T11:32:17.873Z,26.31
2018-07-15T11:34:46.873Z,28.28
2018-07-15T11:37:15.902Z,30.03
2018-07-15T11:39:44.957Z,28.26
2018-07-15T11:42:14.017Z,28.67
2018-07-15T11:44:43.571Z,28.45
2018-07-15T11:47:12.987Z,28.65
2018-07-15T11:49:42.084Z,28.55
2018-07-15T11:52:11.048Z,29.04
2018-07-15T11:54:40.170Z,28.00
2018-07-15T11:57:09.082Z,28.00
2018-07-15T11:59:38.128Z,28.70
2018-07-15T12:02:07.160Z,29.93
2018-07-15T12:04:36.203Z,27.19
2018-07-15T12:07:05.275Z,28.81
2018-07-15T12:09:34.333Z,26.97
2018-07-15T12:12:03.325Z,27.80
2018-07-15T12:14:32.389Z,26.67
2018-07-15T12:17:01.412Z,26.62
2018-07-15T12:19:30.477Z,25.55
2018-07-15T12:21:59.529Z,24.73
2018-07-15T12:24:28.480Z,24.78
2018-07-15T12:26:57.664Z,26.70
2018-07-15T12:29:26.677Z,25.77
2018-07-15T12:31:55.744Z,24.80
2018-07-15T12:34:24.812Z,24.18
2018-07-15T12:36:53.813Z,24.79
2018-07-15T12:39:22.844Z,24.78
2018-07-15T12:41:51.865Z,23.15
2018-07-15T12:44:20.840Z,23.62
2018-07-15T12:46:49.846Z,23.72
2018-07-15T12:49:18.880Z,23.19
2018-07-15T12:51:47.830Z,22.89
2018-07-15T12:54:16.805Z,22.12
2018-07-15T12:56:45.851Z,22.27
2018-07-15T12:59:14.935Z,22.43
2018-07-15T13:01:43.979Z,21.43
2018-07-15T13:04:12.944Z,22.36
2018-07-15T13:06:42.021Z,21.80
2018-07-15T13:09:11.013Z,20.71
2018-07-15T13:11:40.101Z,23.18
2018-07-15T13:14:09.165Z,21.26
2018-07-15T13:16:38.132Z,21.93
2018-07-15T13:19:07.107Z,20.92
2018-07-15T13:21:36.130Z,22.61
2018-07-15T13:24:05.131Z,22.04
2018-07-15T13:27:04.958Z,21.24
2018-07-15T13:29:33.976Z,21.60
2018-07-15T13:32:02.924Z,21.61
2018-07-15T13:34:31.941Z,22.04
2018-07-15T13:37:00.902Z,21.48
2018-07-15T13:39:29.981Z,21.34
2018-07-15T13:41:59.073Z,22.36
2018-07-15T13:44:28.025Z,22.53
2018-07-15T13:46:56.988Z,21.17
2018-07-15T13:49:26.023Z,22.09
2018-07-15T13:51:54.996Z,21.74
2018-07-15T13:54:24.140Z,23.20
2018-07-15T13:56:53.224Z,22.63
2018-07-15T13:59:22.184Z,23.54
2018-07-15T14:01:51.200Z,24.95
2018-07-15T14:04:20.373Z,26.16
2018-07-15T14:06:49.428Z,27.61
2018-07-15T14:09:18.659Z,28.08
2018-07-15T14:11:47.613Z,29.73
2018-07-15T14:14:16.652Z,30.13
2018-07-15T14:16:45.619Z,31.99
2018-07-15T14:19:14.617Z,31.43
2018-07-15T14:21:43.613Z,33.09
2018-07-15T14:24:12.837Z,32.81
2018-07-15T14:26:41.897Z,32.33
2018-07-15T14:29:10.857Z,33.22
2018-07-15T14:31:39.868Z,33.73
2018-07-15T14:34:08.883Z,33.34
2018-07-15T14:36:37.868Z,32.96
2018-07-15T14:39:07.354Z,33.35
2018-07-15T14:41:36.347Z,33.95
2018-07-15T14:44:07.353Z,35.18
2018-07-15T14:46:36.496Z,34.31
2018-07-15T14:49:05.445Z,35.71
2018-07-15T14:51:34.475Z,35.08
2018-07-15T14:54:03.463Z,37.26
2018-07-15T14:56:32.444Z,37.78
2018-07-15T14:59:01.416Z,36.57
2018-07-15T15:01:30.444Z,37.04
2018-07-15T15:03:59.549Z,37.51
2018-07-15T15:06:28.573Z,37.52
2018-07-15T15:08:57.615Z,37.38
2018-07-15T15:11:26.691Z,37.00
2018-07-15T15:13:55.700Z,35.47
2018-07-15T15:16:24.764Z,35.73
2018-07-15T15:18:53.902Z,37.42
2018-07-15T15:21:23.038Z,37.07
2018-07-15T15:23:52.079Z,37.23
2018-07-15T15:26:21.066Z,36.97
2018-07-15T15:28:50.157Z,37.50
2018-07-15T15:31:19.185Z,36.82
2018-07-15T15:33:48.205Z,38.44
2018-07-15T15:36:17.225Z,37.85
2018-07-15T15:38:46.190Z,37.29
2018-07-15T15:41:15.146Z,37.51
2018-07-15T15:43:44.113Z,39.55
2018-07-15T15:46:13.137Z,40.07
2018-07-15T15:48:42.145Z,39.58
2018-07-15T15:51:11.124Z,39.77
2018-07-15T15:53:40.152Z,39.24
2018-07-15T15:56:09.168Z,40.25
2018-07-15T15:58:38.125Z,40.91
2018-07-15T16:01:07.100Z,40.33
2018-07-15T16:03:36.141Z,40.64
2018-07-15T16:06:05.196Z,41.39
2018-07-15T16:08:34.182Z,42.04
2018-07-15T16:11:03.261Z,41.14
2018-07-15T16:13:32.278Z,42.17
2018-07-15T16:16:01.393Z,40.91
2018-07-15T16:18:30.448Z,42.69
2018-07-15T16:20:59.465Z,42.99
2018-07-15T16:23:28.457Z,42.22
2018-07-15T16:25:57.439Z,43.30
2018-07-15T16:28:26.492Z,43.51
2018-07-15T16:30:56.017Z,45.44
2018-07-15T16:33:25.040Z,45.08
2018-07-15T16:35:53.983Z,44.86
2018-07-15T16:38:23.009Z,43.88
2018-07-15T16:40:51.988Z,45.22
2018-07-15T16:43:20.956Z,45.62
2018-07-15T16:45:50.012Z,45.63
2018-07-15T16:48:19.089Z,46.17
2018-07-15T16:50:48.112Z,45.02
2018-07-15T16:53:17.043Z,45.48
2018-07-15T16:55:46.163Z,46.38
2018-07-15T16:58:15.224Z,47.32
2018-07-15T17:00:44.184Z,48.61
2018-07-15T17:03:13.187Z,47.33
2018-07-15T17:05:42.169Z,47.53
2018-07-15T17:08:11.147Z,48.62
2018-07-15T17:10:40.161Z,47.56
2018-07-15T17:13:09.188Z,48.62
2018-07-15T17:15:38.201Z,49.55
2018-07-15T17:18:07.272Z,47.50
2018-07-15T17:20:36.369Z,48.04
2018-07-15T17:23:05.438Z,49.72
2018-07-15T17:25:34.498Z,48.11
2018-07-15T17:28:03.776Z,48.45
2018-07-15T17:30:32.826Z,49.77
2018-07-15T17:33:01.801Z,48.95
2018-07-15T17:35:30.846Z,49.68
2018-07-15T17:37:59.879Z,50.38
2018-07-15T17:40:28.926Z,52.17
2018-07-15T17:42:58.003Z,52.66
2018-07-15T17:45:26.968Z,52.97
2018-07-15T17:47:55.999Z,54.42
2018-07-15T17:50:25.379Z,55.63
2018-07-15T17:52:54.451Z,56.03
2018-07-15T17:55:23.464Z,56.25
2018-07-15T17:57:52.537Z,57.95
2018-07-15T18:00:21.530Z,58.12
2018-07-15T18:02:50.531Z,58.24
2018-07-15T18:05:50.388Z,59.74
2018-07-15T18:08:19.345Z,59.47
2018-07-15T18:10:48.807Z,58.47
2018-07-15T18:13:18.009Z,58.41
2018-07-15T18:15:47.119Z,58.58
2018-07-15T18:18:16.190Z,58.01
2018-07-15T18:20:45.253Z,60.05
2018-07-15T18:23:14.252Z,61.46
2018-07-15T18:25:43.280Z,61.05
2018-07-15T18:28:12.341Z,60.67
2018-07-15T18:30:41.402Z,61.81
2018-07-15T18:33:10.585Z,62.05
2018-07-15T18:35:39.662Z,61.61
2018-07-15T18:38:08.711Z,62.25
2018-07-15T18:40:37.769Z,62.35
2018-07-15T18:43:06.728Z,63.09
2018-07-15T18:45:35.716Z,63.02
2018-07-15T18:48:04.691Z,62.27
2018-07-15T18:50:33.778Z,62.41
2018-07-15T18:53:02.851Z,62.88
2018-07-15T18:55:31.920Z,63.52
2018-07-15T18:58:01.000Z,62.57
2018-07-15T19:00:30.050Z,63.62
2018-07-15T19:02:59.037Z,62.41
2018-07-15T19:05:28.066Z,61.73
2018-07-15T19:07:57.125Z,61.43
2018-07-15T19:10:26.098Z,61.78
2018-07-15T19:12:55.417Z,60.62
2018-07-15T19:15:24.456Z,59.59
2018-07-15T19:17:53.494Z,58.65
2018-07-15T19:20:22.588Z,58.33
2018-07-15T19:22:51.601Z,58.02
2018-07-15T19:25:20.624Z,56.14
2018-07-15T19:27:49.681Z,56.41
2018-07-15T19:30:18.738Z,57.20
2018-07-15T19:32:47.826Z,55.25
2018-07-15T19:35:16.802Z,54.93
2018-07-15T19:37:45.768Z,55.44
2018-07-15T19:40:14.787Z,54.22
2018-07-15T19:42:43.887Z,54.09
2018-07-15T19:45:12.924Z,55.01
2018-07-15T19:47:41.990Z,54.64
2018-07-15T19:50:11.113Z,54.22
2018-07-15T19:52:40.085Z,55.39
2018-07-15T19:55:09.024Z,54.83
2018-07-15T19:57:38.005Z,53.38
2018-07-15T20:00:07.120Z,54.09
2018-07-15T20:02:36.130Z,54.60
2018-07-15T20:05:05.160Z,54.61
2018-07-15T20:07:34.293Z,54.42
2018-07-15T20:10:03.256Z,53.92
2018-07-15T20:12:32.346Z,54.50
2018-07-15T20:15:01.389Z,55.07
2018-07-15T20:17:30.413Z,55.27
2018-07-15T20:19:59.526Z,55.53
2018-07-15T20:22:28.500Z,56.10
2018-07-15T20:24:57.678Z,55.40
2018-07-15T20:27:26.746Z,54.83
2018-07-15T20:29:55.728Z,55.91
2018-07-15T20:32:24.781Z,55.43
2018-07-15T20:34:53.919Z,55.80
2018-07-15T20:37:22.975Z,55.75
2018-07-15T20:39:52.095Z,56.74
2018-07-15T20:42:21.232Z,57.09
2018-07-15T20:44:50.273Z,57.08
2018-07-15T20:47:19.253Z,56.43
2018-07-15T20:49:48.285Z,57.01
2018-07-15T20:52:17.340Z,56.75
2018-07-15T20:54:46.465Z,57.64
2018-07-15T20:57:15.610Z,56.84
2018-07-15T20:59:44.656Z,57.71
2018-07-15T21:02:13.762Z,57.66
2018-07-15T21:04:42.760Z,57.42
2018-07-15T21:07:11.805Z,57.97
2018-07-15T21:09:40.826Z,57.18
2018-07-15T21:12:09.924Z,58.29
2018-07-15T21:14:38.908Z,58.31
2018-07-15T21:17:08.064Z,58.02
2018-07-15T21:19:37.026Z,57.56
2018-07-15T21:22:06.070Z,57.68
2018-07-15T21:24:35.066Z,58.06
2018-07-15T21:27:04.171Z,57.30
2018-07-15T21:32:16.738Z,57.16
2018-07-15T21:34:45.789Z,57.25
2018-07-15T21:37:14.795Z,57.69
2018-07-15T21:39:43.830Z,57.96
2018-07-15T21:42:12.889Z,58.08
2018-07-15T21:44:41.967Z,57.95
2018-07-15T21:47:11.010Z,58.39
2018-07-15T21:49:39.980Z,57.60
2018-07-15T21:52:09.117Z,58.21
2018-07-15T21:54:38.088Z,58.34
2018-07-15T21:57:07.221Z,58.56
2018-07-15T21:59:36.301Z,59.63
2018-07-15T22:02:05.384Z,60.21
2018-07-15T22:04:34.437Z,59.24
2018-07-15T22:07:14.481Z,60.11
2018-07-15T22:09:55.568Z,59.49
2018-07-15T22:12:24.563Z,59.58
2018-07-15T22:14:53.709Z,59.93
2018-07-15T22:17:22.795Z,61.24
2018-07-15T22:19:51.885Z,61.02
2018-07-15T22:22:20.937Z,60.73
2018-07-15T22:24:49.895Z,60.60
2018-07-15T22:27:18.961Z,60.73
2018-07-15T22:29:47.972Z,61.16
2018-07-15T22:32:17.012Z,61.67
2018-07-15T22:34:45.968Z,61.22
2018-07-15T22:37:14.929Z,62.05
2018-07-15T22:39:44.139Z,62.10
2018-07-15T22:42:13.161Z,63.18
2018-07-15T22:44:42.130Z,62.79
2018-07-15T22:47:11.092Z,63.81
2018-07-15T22:49:40.139Z,63.04
2018-07-15T22:52:09.153Z,63.97
2018-07-15T22:54:38.141Z,63.90
2018-07-15T22:57:07.222Z,63.93
2018-07-15T22:59:36.329Z,64.03
2018-07-15T23:02:05.342Z,63.45
2018-07-15T23:05:50.104Z,63.49
2018-07-15T23:08:19.100Z,63.83
2018-07-15T23:10:48.082Z,64.85
2018-07-15T23:13:17.541Z,65.00
2018-07-15T23:15:46.686Z,64.98
2018-07-15T23:18:15.759Z,65.11
2018-07-15T23:20:45.472Z,64.81
2018-07-15T23:23:14.931Z,65.15
2018-07-15T23:25:43.941Z,65.36
2018-07-15T23:28:14.077Z,65.61
2018-07-15T23:30:43.965Z,65.80
2018-07-15T23:33:13.164Z,66.36
2018-07-15T23:35:42.174Z,66.26
2018-07-15T23:38:11.268Z,66.62
2018-07-15T23:40:40.354Z,65.61
2018-07-15T23:43:09.494Z,65.47
2018-07-15T23:45:38.477Z,66.09
2018-07-15T23:48:07.577Z,65.63
2018-07-15T23:50:36.665Z,65.94
2018-07-15T23:53:05.760Z,66.53
2018-07-15T23:55:34.758Z,66.27
2018-07-15T23:58:03.755Z,66.24
